Main page
METAR-TAF:

METAR-TAF

Airports :

Beirut, Lebanon

Beirut Air Base

latitude: 33-49N, longitude: 035-29E, elevation: 29 m

Current weather observation

The report was made 18 minutes ago, at 05:00 UTC
Wind 2 kt from the Southeast
Temperature 16°C
Humidity 48%
Pressure 1018 hPa
Visibility 10 km or more
no clouds below 1500 m and no cumulonimbus

METAR: OLBA 260500Z 14002KT CAVOK 16/05 Q1018

Time: 08:18 (05:18 UTC)

Forecast

The report was made 7 hours and 18 minutes ago, at 22:00 UTC
Forecast valid from 26 at 00 UTC to 27 at 06 UTC
Wind 5 kt from variable directions
Visibility: 8000 m
Few clouds at a height of 2600 ft
Few clouds at a height of 20000 ft
Becoming
from 26 at 09 UTC to 26 at 12 UTC
Wind 15 kt from the West/Southwest
Becoming
from 27 at 03 UTC to 27 at 06 UTC
Wind 5 kt from variable directions
Few clouds at a height of 2600 ft
Broken clouds at a height of 20000 ft

TAF: OLBA 252200Z 2600/2706 VRB05KT 8000 FEW026 FEW200 BECMG 2609/2612 24015KT BECMG 2703/2706 VRB05KT FEW026 BKN200

Weather observations and forecasts of more than 4000 airports (METAR and TAF reports).

The available stations are represented by yellow and red dots on the map.

Hover mouse over dot to see the name of the station.

Then click to see weather observations and forecasts.

To change the map : click on the green buttons with a black cross to zoom in, on the green button with a dash to zoom out, or on the green arrows for adjacent maps.


METAR-TAF: